Time;durP1;ratioP1;P1;durP2;ratioP2;P2;SDS_P1;SDS_P2;PMS_P1;PMS_P2;Temp;Humidity;BMP_temperature;BMP_pressure;BME280_temperature;BME280_humidity;BME280_pressure;Samples;Min_cycle;Max_cycle;Signal;HPM_P1;HPM_P2
2022/04/09 00:01:40;;;;;;;7.57;3.00;;;;;;;;;;5072022;28;20035;-66
2022/04/09 00:04:06;;;;;;;9.20;2.85;;;;;;;;;;5071751;28;20086;-67
2022/04/09 00:06:32;;;;;;;8.73;2.92;;;;;;;;;;5071579;28;20049;-68
2022/04/09 00:08:58;;;;;;;8.55;3.00;;;;;;;;;;5071213;28;20056;-68
2022/04/09 00:11:24;;;;;;;7.38;2.90;;;;;;;;;;5071382;28;20086;-72
2022/04/09 00:13:50;;;;;;;7.78;3.00;;;;;;;;;;5071219;28;20052;-71
2022/04/09 00:16:16;;;;;;;9.27;3.13;;;;;;;;;;5071367;28;20024;-70
2022/04/09 00:18:43;;;;;;;7.22;3.10;;;;;;;;;;5071352;28;20031;-66
2022/04/09 00:21:10;;;;;;;5.78;2.78;;;;;;;;;;5071430;28;20017;-67
2022/04/09 00:23:36;;;;;;;8.20;3.20;;;;;;;;;;5071509;28;20028;-66
2022/04/09 00:26:02;;;;;;;7.07;2.97;;;;;;;;;;5071462;28;20036;-67
2022/04/09 00:28:28;;;;;;;6.03;2.72;;;;;;;;;;5071131;28;20020;-66
2022/04/09 00:30:54;;;;;;;6.85;2.65;;;;;;;;;;5071076;28;20031;-66
2022/04/09 00:33:20;;;;;;;4.88;2.30;;;;;;;;;;5071039;28;20016;-67
2022/04/09 00:35:47;;;;;;;7.78;3.45;;;;;;;;;;5071073;28;20021;-66
2022/04/09 00:38:13;;;;;;;7.88;2.65;;;;;;;;;;5071211;28;20039;-66
2022/04/09 00:40:39;;;;;;;5.05;2.20;;;;;;;;;;5070965;28;20025;-66
2022/04/09 00:43:05;;;;;;;7.03;2.53;;;;;;;;;;5070875;28;20032;-66
2022/04/09 00:45:31;;;;;;;6.55;2.30;;;;;;;;;;5071116;28;20025;-68
2022/04/09 00:47:57;;;;;;;4.05;2.00;;;;;;;;;;5071099;28;20036;-66
2022/04/09 00:50:23;;;;;;;5.50;1.90;;;;;;;;;;5070891;28;20094;-68
2022/04/09 00:52:51;;;;;;;4.95;1.73;;;;;;;;;;5071402;28;20032;-70
2022/04/09 00:56:12;;;;;;;4.15;1.67;;;;;;;;;;5071175;28;20020;-66
2022/04/09 00:58:11;;;;;;;5.15;2.20;;;;;;;;;;5070835;28;20044;-66
2022/04/09 01:00:37;;;;;;;3.80;1.73;;;;;;;;;;5071084;28;20021;-67
2022/04/09 01:03:03;;;;;;;5.70;1.90;;;;;;;;;;5071137;28;20395;-67
2022/04/09 01:05:30;;;;;;;5.03;1.67;;;;;;;;;;5071097;28;20032;-67
2022/04/09 01:07:56;;;;;;;4.38;1.70;;;;;;;;;;5070689;28;20131;-67
2022/04/09 01:10:22;;;;;;;3.63;1.70;;;;;;;;;;5070734;28;20021;-68
2022/04/09 01:12:48;;;;;;;4.82;1.88;;;;;;;;;;5070934;28;20490;-73
2022/04/09 01:15:14;;;;;;;4.38;1.67;;;;;;;;;;5070770;28;20357;-68
2022/04/09 01:17:41;;;;;;;5.75;1.90;;;;;;;;;;5070990;28;20476;-72
2022/04/09 01:20:19;;;;;;;5.85;1.90;;;;;;;;;;5070875;28;20029;-68
2022/04/09 01:22:45;;;;;;;5.60;2.05;;;;;;;;;;5070807;28;20039;-68
2022/04/09 01:25:11;;;;;;;4.45;1.77;;;;;;;;;;5070428;28;20025;-68
2022/04/09 01:27:38;;;;;;;4.85;1.90;;;;;;;;;;5070491;28;20036;-67
2022/04/09 01:30:04;;;;;;;4.05;1.85;;;;;;;;;;5070702;28;20067;-68
2022/04/09 01:32:30;;;;;;;7.05;2.72;;;;;;;;;;5070406;28;20032;-68
2022/04/09 01:35:00;;;;;;;5.55;2.30;;;;;;;;;;5070195;28;20040;-66
2022/04/09 01:37:26;;;;;;;4.43;1.85;;;;;;;;;;5070055;28;20480;-68
2022/04/09 01:39:52;;;;;;;6.57;2.15;;;;;;;;;;5070324;28;20476;-67
2022/04/09 01:42:21;;;;;;;3.90;1.83;;;;;;;;;;5070072;28;20059;-68
2022/04/09 01:44:47;;;;;;;4.10;1.98;;;;;;;;;;5069095;28;20442;-68
2022/04/09 01:47:13;;;;;;;5.13;1.80;;;;;;;;;;5070536;28;20058;-68
2022/04/09 01:49:39;;;;;;;6.15;2.20;;;;;;;;;;5070573;28;20067;-68
2022/04/09 01:52:05;;;;;;;3.35;1.60;;;;;;;;;;5070668;28;20033;-68
2022/04/09 01:54:31;;;;;;;4.68;1.90;;;;;;;;;;5073054;28;20028;-68
2022/04/09 01:56:57;;;;;;;7.03;1.80;;;;;;;;;;5074092;28;20549;-69
2022/04/09 01:59:23;;;;;;;4.63;1.83;;;;;;;;;;5074088;28;20084;-68
2022/04/09 02:01:49;;;;;;;6.60;2.83;;;;;;;;;;5075246;28;20024;-69
2022/04/09 02:04:15;;;;;;;5.68;2.08;;;;;;;;;;5076034;28;20384;-68
2022/04/09 02:06:42;;;;;;;6.65;2.50;;;;;;;;;;5074412;28;20110;-66
2022/04/09 02:09:11;;;;;;;4.97;1.90;;;;;;;;;;5073896;28;20071;-68
2022/04/09 02:11:39;;;;;;;7.55;2.42;;;;;;;;;;5073550;28;20404;-67
2022/04/09 02:14:06;;;;;;;3.70;1.90;;;;;;;;;;5073893;28;20468;-67
2022/04/09 02:16:32;;;;;;;5.75;2.00;;;;;;;;;;5073808;28;20045;-67
2022/04/09 02:18:58;;;;;;;8.43;2.35;;;;;;;;;;5073864;28;20089;-67
2022/04/09 02:21:24;;;;;;;7.22;2.60;;;;;;;;;;5073928;28;20031;-68
2022/04/09 02:23:50;;;;;;;5.13;2.53;;;;;;;;;;5073683;28;20035;-68
2022/04/09 02:26:16;;;;;;;6.55;2.42;;;;;;;;;;5073436;28;20025;-68
2022/04/09 02:28:46;;;;;;;7.13;2.20;;;;;;;;;;5073472;28;20181;-68
2022/04/09 02:31:12;;;;;;;6.50;2.42;;;;;;;;;;5073893;28;20021;-67
2022/04/09 02:33:39;;;;;;;6.93;1.88;;;;;;;;;;5073292;28;20111;-67
2022/04/09 02:36:09;;;;;;;10.18;2.17;;;;;;;;;;5073331;28;20075;-68
2022/04/09 02:38:35;;;;;;;5.38;1.90;;;;;;;;;;5073528;28;20032;-68
2022/04/09 02:41:01;;;;;;;8.38;2.30;;;;;;;;;;5073301;28;20032;-68
2022/04/09 02:43:27;;;;;;;6.50;2.03;;;;;;;;;;5073226;28;20021;-67
2022/04/09 02:45:54;;;;;;;6.65;2.83;;;;;;;;;;5073290;28;20020;-68
2022/04/09 02:48:21;;;;;;;6.70;2.80;;;;;;;;;;5073194;28;20028;-67
2022/04/09 02:50:48;;;;;;;5.40;2.30;;;;;;;;;;5073256;28;20107;-69
2022/04/09 02:53:14;;;;;;;6.28;2.20;;;;;;;;;;5073006;28;20052;-68
2022/04/09 02:55:40;;;;;;;6.88;2.88;;;;;;;;;;5073152;28;20392;-68
2022/04/09 02:58:07;;;;;;;6.97;2.72;;;;;;;;;;5072705;28;20115;-67
2022/04/09 03:00:33;;;;;;;8.88;2.72;;;;;;;;;;5073026;28;20095;-67
2022/04/09 03:02:59;;;;;;;5.97;2.38;;;;;;;;;;5072787;28;20100;-66
2022/04/09 03:05:25;;;;;;;8.80;2.60;;;;;;;;;;5072632;28;20438;-68
2022/04/09 03:07:51;;;;;;;5.10;2.45;;;;;;;;;;5072400;28;20057;-68
2022/04/09 03:10:17;;;;;;;7.07;2.50;;;;;;;;;;5072553;28;20040;-70
2022/04/09 03:12:47;;;;;;;7.97;2.60;;;;;;;;;;5072641;28;20028;-67
2022/04/09 03:15:14;;;;;;;4.93;2.33;;;;;;;;;;5072686;28;20044;-68
2022/04/09 03:17:40;;;;;;;6.13;2.10;;;;;;;;;;5072530;28;20044;-67
2022/04/09 03:20:07;;;;;;;7.57;2.40;;;;;;;;;;5072402;28;20046;-68
2022/04/09 03:22:33;;;;;;;7.10;2.20;;;;;;;;;;5072652;28;20056;-69
2022/04/09 03:25:00;;;;;;;6.88;2.28;;;;;;;;;;5072357;28;20032;-68
2022/04/09 03:27:26;;;;;;;7.50;2.67;;;;;;;;;;5072216;28;20085;-68
2022/04/09 03:29:52;;;;;;;7.50;2.10;;;;;;;;;;5072249;28;20488;-68
2022/04/09 03:32:19;;;;;;;6.15;1.77;;;;;;;;;;5072441;28;20021;-68
2022/04/09 03:34:45;;;;;;;6.40;1.70;;;;;;;;;;5072350;28;20021;-71
2022/04/09 03:37:11;;;;;;;6.47;2.33;;;;;;;;;;5072025;28;20044;-69
2022/04/09 03:39:37;;;;;;;5.53;2.33;;;;;;;;;;5072089;28;20024;-68
2022/04/09 03:42:04;;;;;;;8.60;1.70;;;;;;;;;;5071872;28;20067;-69
2022/04/09 03:44:30;;;;;;;6.00;1.95;;;;;;;;;;5072252;28;20484;-67
2022/04/09 03:47:00;;;;;;;5.55;1.92;;;;;;;;;;5072170;28;20036;-68
2022/04/09 03:49:26;;;;;;;7.50;1.75;;;;;;;;;;5072116;28;20024;-67
2022/04/09 03:51:52;;;;;;;7.03;1.73;;;;;;;;;;5072351;28;20040;-72
2022/04/09 03:54:18;;;;;;;6.38;2.50;;;;;;;;;;5071883;28;20059;-67
2022/04/09 03:56:44;;;;;;;5.40;1.60;;;;;;;;;;5071987;28;20028;-67
2022/04/09 03:59:10;;;;;;;6.75;1.67;;;;;;;;;;5070228;28;20040;-71
2022/04/09 04:01:37;;;;;;;7.63;2.05;;;;;;;;;;5071932;28;20104;-67
2022/04/09 04:04:03;;;;;;;6.47;1.85;;;;;;;;;;5071833;28;20388;-66
2022/04/09 04:06:29;;;;;;;6.00;1.80;;;;;;;;;;5071302;28;20044;-67
2022/04/09 04:08:56;;;;;;;4.45;1.48;;;;;;;;;;5071578;28;20067;-67
2022/04/09 04:11:23;;;;;;;8.25;1.85;;;;;;;;;;5071195;28;20111;-67
2022/04/09 04:13:49;;;;;;;8.70;1.70;;;;;;;;;;5071654;28;20024;-67
2022/04/09 04:16:15;;;;;;;8.82;2.33;;;;;;;;;;5070866;28;20032;-67
2022/04/09 04:18:42;;;;;;;3.38;1.50;;;;;;;;;;5071359;28;20036;-71
2022/04/09 04:21:08;;;;;;;5.55;1.83;;;;;;;;;;5071497;28;20028;-67
2022/04/09 04:23:34;;;;;;;6.03;1.58;;;;;;;;;;5071360;28;20032;-68
2022/04/09 04:26:01;;;;;;;4.65;1.83;;;;;;;;;;5071086;28;20578;-67
2022/04/09 04:28:27;;;;;;;8.23;1.60;;;;;;;;;;5071224;28;20020;-66
2022/04/09 04:30:53;;;;;;;6.97;2.03;;;;;;;;;;5071074;28;20095;-66
2022/04/09 04:33:19;;;;;;;5.60;1.75;;;;;;;;;;5071146;28;20480;-68
2022/04/09 04:35:45;;;;;;;5.05;1.95;;;;;;;;;;5070966;28;20028;-68
2022/04/09 04:38:12;;;;;;;10.25;1.90;;;;;;;;;;5070902;28;20040;-66
2022/04/09 04:40:38;;;;;;;7.30;1.90;;;;;;;;;;5071088;28;20383;-66
2022/04/09 04:43:04;;;;;;;6.75;1.90;;;;;;;;;;5070591;28;20047;-68
2022/04/09 04:45:31;;;;;;;6.18;1.80;;;;;;;;;;5071221;28;20020;-71
2022/04/09 04:47:57;;;;;;;8.73;1.73;;;;;;;;;;5070726;28;20039;-66
2022/04/09 04:50:23;;;;;;;7.57;1.90;;;;;;;;;;5070875;28;20546;-66
2022/04/09 04:52:49;;;;;;;6.15;1.83;;;;;;;;;;5070946;28;20032;-66
2022/04/09 04:55:16;;;;;;;6.90;2.28;;;;;;;;;;5071044;28;20032;-66
2022/04/09 04:57:42;;;;;;;6.20;1.83;;;;;;;;;;5070151;28;20094;-66
2022/04/09 05:00:08;;;;;;;8.15;2.33;;;;;;;;;;5069578;28;20051;-68
2022/04/09 05:02:35;;;;;;;8.80;2.33;;;;;;;;;;5057776;28;20385;-65
2022/04/09 05:05:01;;;;;;;5.43;1.75;;;;;;;;;;5058972;28;20029;-68
2022/04/09 05:07:46;;;;;;;6.93;1.85;;;;;;;;;;5060151;28;20071;-67
2022/04/09 05:10:14;;;;;;;6.35;1.90;;;;;;;;;;5060517;28;20106;-69
2022/04/09 05:12:40;;;;;;;6.65;1.80;;;;;;;;;;5059704;28;20040;-72
2022/04/09 05:15:07;;;;;;;5.80;2.22;;;;;;;;;;5058487;28;20463;-67
2022/04/09 05:17:33;;;;;;;9.55;2.08;;;;;;;;;;5060055;28;20123;-69
2022/04/09 05:20:01;;;;;;;12.65;2.13;;;;;;;;;;5060000;28;20059;-66
2022/04/09 05:22:27;;;;;;;8.35;2.22;;;;;;;;;;5058485;28;20032;-71
2022/04/09 05:24:54;;;;;;;8.02;2.20;;;;;;;;;;5059915;28;20541;-69
2022/04/09 05:27:20;;;;;;;7.35;1.92;;;;;;;;;;5059842;28;20552;-67
2022/04/09 05:29:46;;;;;;;8.23;2.45;;;;;;;;;;5061614;28;20029;-68
2022/04/09 05:32:12;;;;;;;17.75;2.75;;;;;;;;;;5061423;28;20112;-66
2022/04/09 05:34:38;;;;;;;9.05;2.58;;;;;;;;;;5054568;28;20029;-65
2022/04/09 05:37:04;;;;;;;5.72;2.03;;;;;;;;;;5054057;28;20087;-64
2022/04/09 05:39:30;;;;;;;9.43;2.60;;;;;;;;;;5054591;28;20029;-65
2022/04/09 05:41:56;;;;;;;9.50;2.65;;;;;;;;;;5054141;28;20108;-65
2022/04/09 05:44:22;;;;;;;13.25;2.25;;;;;;;;;;5056625;28;20029;-65
2022/04/09 05:46:48;;;;;;;13.32;2.70;;;;;;;;;;5070875;28;20119;-67
2022/04/09 05:49:14;;;;;;;7.78;2.15;;;;;;;;;;5054104;28;20567;-66
2022/04/09 05:51:41;;;;;;;14.45;2.70;;;;;;;;;;5054292;28;20326;-66
2022/04/09 05:54:07;;;;;;;7.13;2.10;;;;;;;;;;5054138;28;20534;-66
2022/04/09 05:56:34;;;;;;;10.13;2.35;;;;;;;;;;5053934;28;20033;-71
2022/04/09 05:59:00;;;;;;;10.27;2.55;;;;;;;;;;5054013;28;20098;-65
2022/04/09 06:01:26;;;;;;;9.68;2.50;;;;;;;;;;5053789;28;20047;-65
2022/04/09 06:03:53;;;;;;;10.05;2.25;;;;;;;;;;5053623;28;20029;-66
2022/04/09 06:06:19;;;;;;;10.35;2.60;;;;;;;;;;5053201;28;20049;-65
2022/04/09 06:08:45;;;;;;;10.57;2.80;;;;;;;;;;5053536;28;20029;-75
2022/04/09 06:11:11;;;;;;;12.90;2.90;;;;;;;;;;5053657;28;20025;-68
2022/04/09 06:13:37;;;;;;;9.32;2.42;;;;;;;;;;5053518;28;20029;-67
2022/04/09 06:16:08;;;;;;;10.50;3.03;;;;;;;;;;5053654;28;20021;-69
2022/04/09 06:18:35;;;;;;;19.75;3.20;;;;;;;;;;5051754;28;20400;-70
2022/04/09 06:21:01;;;;;;;12.43;2.92;;;;;;;;;;5053507;28;20380;-68
2022/04/09 06:23:27;;;;;;;12.13;2.70;;;;;;;;;;5053339;28;20216;-66
2022/04/09 06:25:53;;;;;;;9.13;3.20;;;;;;;;;;5053858;28;20095;-70
2022/04/09 06:28:19;;;;;;;12.57;2.58;;;;;;;;;;5053201;28;20028;-67
2022/04/09 06:30:45;;;;;;;11.23;2.75;;;;;;;;;;5053270;28;20029;-66
2022/04/09 06:33:11;;;;;;;9.13;2.92;;;;;;;;;;5053449;28;20021;-66
2022/04/09 06:35:38;;;;;;;8.77;2.60;;;;;;;;;;5052802;28;20036;-64
2022/04/09 06:38:04;;;;;;;8.95;2.60;;;;;;;;;;5064477;28;20123;-63
2022/04/09 06:40:30;;;;;;;6.47;2.13;;;;;;;;;;5072555;28;20111;-62
2022/04/09 06:42:57;;;;;;;11.63;3.10;;;;;;;;;;5063748;28;20024;-63
2022/04/09 06:45:23;;;;;;;10.07;3.17;;;;;;;;;;5053373;28;20053;-64
2022/04/09 06:47:50;;;;;;;8.43;2.58;;;;;;;;;;5053235;28;20024;-64
2022/04/09 06:50:16;;;;;;;7.63;2.45;;;;;;;;;;5054933;28;20025;-63
2022/04/09 06:52:42;;;;;;;10.95;2.83;;;;;;;;;;5055701;28;20029;-65
2022/04/09 06:55:11;;;;;;;7.05;2.65;;;;;;;;;;5053415;28;20048;-66
2022/04/09 17:27:08;;;;;;;7.82;5.25;;;;;;;;;;5037132;23;20139;-67
2022/04/09 17:29:34;;;;;;;8.65;4.95;;;;;;;;;;4918336;29;20028;-65
2022/04/09 17:32:00;;;;;;;6.20;4.90;;;;;;;;;;4918096;29;20354;-66
2022/04/09 17:34:27;;;;;;;8.45;4.95;;;;;;;;;;4916723;29;20043;-64
2022/04/09 17:36:58;;;;;;;8.15;5.03;;;;;;;;;;4915618;29;20075;-72
2022/04/09 17:39:24;;;;;;;7.72;5.07;;;;;;;;;;4916407;29;20059;-71
2022/04/09 17:41:50;;;;;;;8.82;5.40;;;;;;;;;;4899148;29;20771;-72
2022/04/09 17:44:16;;;;;;;9.15;5.30;;;;;;;;;;4916915;29;20078;-67
2022/04/09 17:46:42;;;;;;;6.28;4.75;;;;;;;;;;4916759;29;20047;-66
2022/04/09 17:49:11;;;;;;;8.20;5.38;;;;;;;;;;4916630;29;20043;-66
2022/04/09 17:51:37;;;;;;;7.28;5.30;;;;;;;;;;4916764;29;20115;-66
2022/04/09 17:54:03;;;;;;;7.68;5.78;;;;;;;;;;4914415;29;20107;-65
2022/04/09 17:56:29;;;;;;;7.80;5.70;;;;;;;;;;4916470;29;20143;-64
2022/04/09 17:58:55;;;;;;;8.18;5.80;;;;;;;;;;4915575;29;20567;-66
2022/04/09 18:01:21;;;;;;;8.48;6.28;;;;;;;;;;4916254;29;20024;-64
2022/04/09 18:03:48;;;;;;;8.05;5.38;;;;;;;;;;4916703;29;20059;-66
2022/04/09 18:06:14;;;;;;;10.02;6.10;;;;;;;;;;4913393;29;20024;-65
2022/04/09 18:08:40;;;;;;;9.20;6.13;;;;;;;;;;4915898;29;20540;-69
2022/04/09 18:11:06;;;;;;;7.78;6.03;;;;;;;;;;4916813;29;20380;-67
2022/04/09 18:13:32;;;;;;;10.35;6.13;;;;;;;;;;4917560;29;20024;-71
2022/04/09 18:16:00;;;;;;;10.57;5.68;;;;;;;;;;4917198;29;20040;-68
2022/04/09 18:18:26;;;;;;;10.13;6.80;;;;;;;;;;4916493;29;20036;-65
2022/04/09 18:20:52;;;;;;;8.95;6.30;;;;;;;;;;4916731;29;20028;-64
2022/04/09 18:23:18;;;;;;;12.80;7.15;;;;;;;;;;4913585;29;20036;-64
2022/04/09 18:25:44;;;;;;;11.80;6.57;;;;;;;;;;4915581;29;20052;-63
2022/04/09 18:28:10;;;;;;;9.40;7.07;;;;;;;;;;4915896;29;20391;-63
2022/04/09 18:30:37;;;;;;;11.73;7.32;;;;;;;;;;4915449;29;20095;-63
2022/04/09 18:33:03;;;;;;;13.45;7.50;;;;;;;;;;4915762;29;20042;-63
2022/04/09 18:35:29;;;;;;;9.30;6.60;;;;;;;;;;4915569;29;20453;-64
2022/04/09 18:37:55;;;;;;;10.63;7.32;;;;;;;;;;4916331;29;20636;-63
2022/04/09 18:40:22;;;;;;;12.77;7.10;;;;;;;;;;4916013;29;20071;-65
2022/04/09 18:42:49;;;;;;;10.02;7.00;;;;;;;;;;4915798;29;20047;-70
2022/04/09 18:45:15;;;;;;;11.63;7.60;;;;;;;;;;4915612;29;20033;-63
2022/04/09 18:47:41;;;;;;;10.63;6.70;;;;;;;;;;4913616;29;20032;-65
2022/04/09 18:50:10;;;;;;;13.27;7.43;;;;;;;;;;4915500;29;20404;-63
2022/04/09 18:52:36;;;;;;;12.75;7.93;;;;;;;;;;4915786;29;20035;-62
2022/04/09 18:55:02;;;;;;;11.82;7.30;;;;;;;;;;4916805;29;20138;-64
2022/04/09 18:57:28;;;;;;;11.38;7.20;;;;;;;;;;4916855;29;20048;-65
2022/04/09 18:59:54;;;;;;;13.48;6.80;;;;;;;;;;4916851;29;20057;-68
2022/04/09 19:02:20;;;;;;;19.65;13.30;;;;;;;;;;4916160;29;20036;-67
2022/04/09 19:04:46;;;;;;;12.52;7.88;;;;;;;;;;4912353;29;20103;-68
2022/04/09 19:07:13;;;;;;;10.70;6.65;;;;;;;;;;4915383;29;20080;-70
2022/04/09 19:09:40;;;;;;;10.52;6.72;;;;;;;;;;4914982;29;20059;-64
2022/04/09 19:12:07;;;;;;;13.10;7.00;;;;;;;;;;4912624;29;20020;-70
2022/04/09 19:14:33;;;;;;;14.10;7.30;;;;;;;;;;4915327;29;20031;-67
2022/04/09 19:16:59;;;;;;;14.20;8.38;;;;;;;;;;4915971;29;20060;-69
2022/04/09 19:19:25;;;;;;;13.40;7.70;;;;;;;;;;4916263;29;20036;-68
2022/04/09 19:21:51;;;;;;;11.00;7.45;;;;;;;;;;4915827;29;20103;-64
2022/04/09 19:24:17;;;;;;;13.63;7.72;;;;;;;;;;4915189;29;20028;-66
2022/04/09 19:26:43;;;;;;;14.13;7.85;;;;;;;;;;4915235;29;20052;-69
2022/04/09 19:29:09;;;;;;;13.32;7.93;;;;;;;;;;4915589;29;20028;-69
2022/04/09 19:31:36;;;;;;;13.45;7.63;;;;;;;;;;4913244;29;20111;-68
2022/04/09 19:34:05;;;;;;;11.35;7.28;;;;;;;;;;4922346;29;20027;-63
2022/04/09 19:36:38;;;;;;;12.85;7.82;;;;;;;;;;4922386;29;20329;-68
2022/04/09 19:39:05;;;;;;;10.80;7.20;;;;;;;;;;4930549;29;20086;-69
2022/04/09 19:41:31;;;;;;;10.68;7.60;;;;;;;;;;4933216;29;20028;-68
2022/04/09 19:44:00;;;;;;;10.52;7.43;;;;;;;;;;4915010;29;20063;-63
2022/04/09 19:46:27;;;;;;;12.88;7.78;;;;;;;;;;4917521;29;20036;-62
2022/04/09 19:48:54;;;;;;;11.43;7.60;;;;;;;;;;4918267;29;20425;-62
2022/04/09 19:51:20;;;;;;;12.38;7.88;;;;;;;;;;4918817;29;20032;-64
2022/04/09 19:53:46;;;;;;;12.38;8.20;;;;;;;;;;4924502;29;20835;-66
2022/04/09 19:56:12;;;;;;;13.52;8.23;;;;;;;;;;4921514;29;20059;-64
2022/04/09 19:58:38;;;;;;;10.60;7.65;;;;;;;;;;4924361;29;20040;-64
2022/04/09 20:01:04;;;;;;;11.85;8.10;;;;;;;;;;4919496;29;20031;-64
2022/04/09 20:03:30;;;;;;;11.48;8.52;;;;;;;;;;4914367;29;20043;-66
2022/04/09 20:05:57;;;;;;;14.73;8.13;;;;;;;;;;4914906;29;20055;-64
